Time;durP1;ratioP1;P1;durP2;ratioP2;P2;SDS_P1;SDS_P2;PMS_P1;PMS_P2;Temp;Humidity;BMP_temperature;BMP_pressure;BME280_temperature;BME280_humidity;BME280_pressure;Samples;Min_cycle;Max_cycle;Signal;HPM_P1;HPM_P2
2023/12/29 00:02:13;;;;;;;12.45;1.40;;;11.30;93.50;;;;;;5000314;28;20025;-86
2023/12/29 00:04:38;;;;;;;10.77;1.27;;;11.40;93.60;;;;;;5000179;28;20061;-86
2023/12/29 00:07:04;;;;;;;11.02;0.95;;;11.40;93.50;;;;;;5000193;28;20022;-85
2023/12/29 00:09:30;;;;;;;9.30;1.23;;;11.40;93.50;;;;;;4999621;28;20030;-84
2023/12/29 00:11:56;;;;;;;11.70;1.48;;;11.40;93.50;;;;;;5000598;28;20025;-87
2023/12/29 00:14:26;;;;;;;8.82;1.20;;;11.40;93.40;;;;;;5001862;28;20033;-85
2023/12/29 00:16:51;;;;;;;9.80;1.33;;;11.40;93.50;;;;;;5001939;28;20038;-85
2023/12/29 00:19:17;;;;;;;13.15;1.23;;;11.40;93.40;;;;;;5005843;28;20098;-87
2023/12/29 00:21:43;;;;;;;11.80;1.77;;;11.40;93.30;;;;;;5003901;28;20477;-85
2023/12/29 00:24:09;;;;;;;11.25;1.48;;;11.40;93.40;;;;;;5005102;28;20038;-87
2023/12/29 00:26:34;;;;;;;8.13;1.17;;;11.40;93.40;;;;;;5004043;28;20022;-86
2023/12/29 00:29:00;;;;;;;8.82;0.98;;;11.40;93.50;;;;;;5003752;28;20022;-86
2023/12/29 00:31:26;;;;;;;9.38;0.98;;;11.40;93.90;;;;;;5004825;28;20026;-87
2023/12/29 00:33:53;;;;;;;8.60;1.42;;;11.40;94.10;;;;;;5005215;28;20022;-88
2023/12/29 00:36:20;;;;;;;9.05;1.23;;;11.40;94.30;;;;;;5004308;28;20077;-87
2023/12/29 00:38:47;;;;;;;9.13;1.83;;;11.30;94.60;;;;;;5003831;28;20057;-87
2023/12/29 00:41:13;;;;;;;13.82;1.58;;;11.30;94.70;;;;;;5004073;28;20030;-87
2023/12/29 00:43:38;;;;;;;9.77;1.27;;;11.30;94.70;;;;;;4986894;28;20034;-86
2023/12/29 00:46:05;;;;;;;8.90;1.27;;;11.20;94.70;;;;;;5003387;28;20113;-87
2023/12/29 00:48:35;;;;;;;15.63;2.17;;;11.20;94.60;;;;;;5003291;28;20022;-87
2023/12/29 00:51:02;;;;;;;9.85;1.33;;;11.30;94.60;;;;;;5004316;28;20065;-87
2023/12/29 00:53:33;;;;;;;6.28;1.23;;;11.20;94.50;;;;;;5003270;28;20029;-86
2023/12/29 00:56:01;;;;;;;8.25;1.30;;;11.30;94.50;;;;;;5004186;28;20022;-87
2023/12/29 00:58:26;;;;;;;11.88;1.50;;;11.30;94.40;;;;;;5005138;28;20027;-86
2023/12/29 01:00:52;;;;;;;16.15;1.67;;;11.30;94.40;;;;;;5004557;28;20034;-87
2023/12/29 01:03:18;;;;;;;12.65;1.60;;;11.30;94.30;;;;;;5004188;28;20034;-87
2023/12/29 01:05:44;;;;;;;13.13;1.35;;;11.30;94.30;;;;;;5003543;28;20049;-87
2023/12/29 01:08:09;;;;;;;13.18;1.85;;;11.30;94.30;;;;;;5003323;28;20026;-86
2023/12/29 01:10:35;;;;;;;7.75;1.38;;;11.30;94.30;;;;;;5003569;28;20022;-89
2023/12/29 01:13:01;;;;;;;11.02;1.40;;;11.30;94.30;;;;;;5004999;28;20018;-87
2023/12/29 01:15:28;;;;;;;10.00;1.42;;;11.30;94.40;;;;;;5003911;28;20021;-86
2023/12/29 01:17:54;;;;;;;5.28;1.15;;;11.30;94.60;;;;;;5004264;28;20023;-87
2023/12/29 01:20:19;;;;;;;9.45;1.38;;;11.30;94.70;;;;;;4986946;28;20033;-87
2023/12/29 01:22:45;;;;;;;11.68;1.13;;;11.30;94.90;;;;;;5002315;28;20475;-85
2023/12/29 01:25:11;;;;;;;13.23;1.55;;;11.30;95.00;;;;;;5002225;28;20061;-87
2023/12/29 01:27:37;;;;;;;8.30;1.10;;;11.20;95.20;;;;;;5003600;28;20027;-86
2023/12/29 01:30:04;;;;;;;11.75;2.00;;;11.20;95.50;;;;;;5002126;28;20090;-87
2023/12/29 01:32:29;;;;;;;12.23;2.08;;;11.20;95.60;;;;;;5001941;28;20026;-88
2023/12/29 01:34:55;;;;;;;15.52;2.03;;;11.20;95.70;;;;;;5003505;28;20540;-87
2023/12/29 01:37:22;;;;;;;8.43;1.13;;;11.20;95.80;;;;;;5002417;28;20047;-86
2023/12/29 01:39:47;;;;;;;10.23;1.25;;;11.10;95.90;;;;;;5002072;28;20073;-86
2023/12/29 01:42:13;;;;;;;12.65;1.20;;;11.10;96.00;;;;;;5003535;28;20026;-87
2023/12/29 01:44:39;;;;;;;6.35;0.98;;;11.10;96.10;;;;;;5003905;28;20042;-87
2023/12/29 01:47:13;;;;;;;11.57;1.42;;;11.10;96.30;;;;;;4985784;28;20037;-87
2023/12/29 01:49:39;;;;;;;11.52;1.30;;;11.10;96.30;;;;;;5002298;28;20033;-87
2023/12/29 01:52:06;;;;;;;12.27;1.77;;;11.10;96.40;;;;;;4985776;28;20038;-87
2023/12/29 01:54:35;;;;;;;7.35;1.08;;;11.10;96.40;;;;;;5002161;28;20041;-86
2023/12/29 01:57:02;;;;;;;12.05;1.25;;;11.00;96.40;;;;;;5003133;28;20062;-87
2023/12/29 01:59:29;;;;;;;9.40;1.55;;;11.00;96.40;;;;;;5001822;28;20030;-87
2023/12/29 02:01:58;;;;;;;7.47;1.20;;;11.00;96.50;;;;;;5001832;28;20094;-86
2023/12/29 02:04:27;;;;;;;12.73;1.83;;;11.00;96.50;;;;;;5002846;28;20102;-86
2023/12/29 02:06:54;;;;;;;9.07;1.13;;;11.00;96.50;;;;;;5001764;28;20018;-87
2023/12/29 02:09:20;;;;;;;8.88;1.13;;;11.00;96.60;;;;;;5001902;28;20026;-87
2023/12/29 02:11:46;;;;;;;11.18;1.38;;;11.00;96.70;;;;;;5001701;28;20122;-86
2023/12/29 02:14:16;;;;;;;10.57;1.25;;;11.00;96.90;;;;;;5001578;28;20018;-87
2023/12/29 02:16:45;;;;;;;7.80;1.15;;;11.00;96.90;;;;;;5002931;28;20077;-87
2023/12/29 02:19:40;;;;;;;7.55;0.82;;;11.00;97.00;;;;;;5001605;28;20093;-87
2023/12/29 02:22:08;;;;;;;8.98;1.13;;;11.00;97.20;;;;;;4994766;28;20045;-87
2023/12/29 02:24:37;;;;;;;9.95;1.88;;;11.00;97.40;;;;;;5001560;28;20446;-87
2023/12/29 02:27:40;;;;;;;7.70;1.42;;;10.90;97.80;;;;;;5001287;28;20113;-87
2023/12/29 02:30:10;;;;;;;10.95;1.40;;;10.90;97.90;;;;;;5002492;28;20026;-86
2023/12/29 02:32:39;;;;;;;13.27;1.77;;;10.90;98.10;;;;;;5001687;28;20031;-86
2023/12/29 02:35:07;;;;;;;8.75;0.95;;;10.90;98.50;;;;;;5001896;28;20061;-86
2023/12/29 02:37:36;;;;;;;7.53;1.05;;;10.80;98.70;;;;;;5001309;28;20141;-86
2023/12/29 02:40:01;;;;;;;11.68;1.38;;;10.80;98.90;;;;;;5000049;28;20026;-85
2023/12/29 02:42:27;;;;;;;8.38;1.10;;;10.80;99.30;;;;;;5002746;28;20589;-86
2023/12/29 02:44:53;;;;;;;10.48;1.67;;;10.80;99.40;;;;;;5001330;28;20041;-87
2023/12/29 02:47:19;;;;;;;8.55;1.48;;;10.70;99.80;;;;;;5000800;28;20058;-86
2023/12/29 02:49:45;;;;;;;8.23;1.40;;;10.70;99.90;;;;;;5002564;28;20026;-86
2023/12/29 02:52:10;;;;;;;9.25;1.27;;;10.70;99.90;;;;;;5000746;28;20082;-86
2023/12/29 02:54:36;;;;;;;8.30;1.58;;;10.70;99.90;;;;;;5002634;28;20026;-85
2023/12/29 02:57:01;;;;;;;8.70;1.42;;;10.70;99.90;;;;;;5000713;28;20114;-85
2023/12/29 02:59:27;;;;;;;10.02;1.83;;;10.70;99.90;;;;;;5002672;28;20022;-86
2023/12/29 03:01:53;;;;;;;11.52;2.22;;;10.70;99.90;;;;;;5001273;28;20497;-87
2023/12/29 03:04:19;;;;;;;9.20;1.40;;;10.70;99.90;;;;;;5000363;28;20026;-85
2023/12/29 03:06:44;;;;;;;10.40;1.15;;;10.70;99.90;;;;;;5001726;28;20046;-85
2023/12/29 03:09:10;;;;;;;10.20;1.58;;;10.70;99.90;;;;;;5000428;28;20032;-86
2023/12/29 03:11:35;;;;;;;11.85;1.95;;;10.70;99.90;;;;;;5000983;28;20053;-86
2023/12/29 03:14:01;;;;;;;12.77;2.08;;;10.70;99.90;;;;;;5001908;28;20019;-86
2023/12/29 03:16:27;;;;;;;11.88;1.58;;;10.70;99.90;;;;;;5001182;28;20056;-86
2023/12/29 03:18:52;;;;;;;10.65;1.63;;;10.70;99.90;;;;;;5000715;28;20021;-86
2023/12/29 03:21:18;;;;;;;14.05;1.75;;;10.70;99.90;;;;;;5000803;28;20058;-87
2023/12/29 03:23:44;;;;;;;9.77;1.52;;;10.70;99.90;;;;;;5000829;28;20033;-86
2023/12/29 03:26:09;;;;;;;10.82;1.55;;;10.70;99.90;;;;;;5000310;28;20270;-87
2023/12/29 03:28:35;;;;;;;10.27;2.00;;;10.80;99.90;;;;;;5000939;28;20026;-87
2023/12/29 03:31:01;;;;;;;12.73;1.48;;;10.80;99.90;;;;;;5002092;28;20064;-88
2023/12/29 03:33:26;;;;;;;10.18;1.30;;;10.80;99.90;;;;;;5001881;28;20073;-86
2023/12/29 03:35:52;;;;;;;11.52;1.60;;;10.80;99.90;;;;;;5003882;28;20025;-85
2023/12/29 03:38:19;;;;;;;12.27;1.63;;;10.80;99.80;;;;;;5022089;28;20029;-87
2023/12/29 03:40:44;;;;;;;12.63;2.40;;;10.80;99.60;;;;;;5004102;28;20026;-87
2023/12/29 03:43:10;;;;;;;8.55;1.23;;;10.80;99.60;;;;;;5003120;28;20022;-86
2023/12/29 03:45:36;;;;;;;11.48;1.35;;;10.90;99.50;;;;;;5004012;28;20026;-86
2023/12/29 03:48:02;;;;;;;15.00;1.55;;;10.90;99.30;;;;;;5021097;28;20025;-87
2023/12/29 03:50:27;;;;;;;8.85;1.45;;;10.90;99.20;;;;;;5004216;28;20049;-87
2023/12/29 03:52:54;;;;;;;12.32;1.70;;;10.90;99.20;;;;;;5006825;28;20030;-86
2023/12/29 03:55:21;;;;;;;10.40;1.23;;;11.00;98.80;;;;;;5025419;28;20037;-87
2023/12/29 03:57:46;;;;;;;11.23;1.38;;;11.00;98.80;;;;;;5025474;28;20029;-87
2023/12/29 04:00:13;;;;;;;14.85;1.73;;;11.00;98.80;;;;;;5007285;28;20041;-83
2023/12/29 04:02:39;;;;;;;13.90;1.35;;;11.00;98.50;;;;;;5025542;28;20029;-85
2023/12/29 04:05:06;;;;;;;14.70;2.40;;;11.00;98.20;;;;;;5025224;28;20036;-87
2023/12/29 04:07:32;;;;;;;14.30;2.08;;;11.00;98.10;;;;;;5007830;28;20022;-86
2023/12/29 04:09:58;;;;;;;14.90;1.50;;;11.00;97.80;;;;;;5007299;28;20026;-85
2023/12/29 04:12:23;;;;;;;13.55;1.90;;;11.10;97.50;;;;;;5025166;28;20135;-87
2023/12/29 04:14:49;;;;;;;13.40;2.15;;;11.10;97.20;;;;;;5025072;28;20022;-87
2023/12/29 04:17:15;;;;;;;13.13;2.25;;;11.10;97.20;;;;;;5024516;28;20106;-88
2023/12/29 04:19:41;;;;;;;13.68;1.75;;;11.10;97.20;;;;;;5024856;28;20081;-86
2023/12/29 04:22:07;;;;;;;12.02;1.65;;;11.10;97.20;;;;;;5006814;28;20035;-88
2023/12/29 04:24:33;;;;;;;11.88;1.92;;;11.10;97.10;;;;;;5007412;28;20042;-85
2023/12/29 04:26:59;;;;;;;15.18;1.80;;;11.10;97.10;;;;;;5005404;28;20338;-87
2023/12/29 04:29:25;;;;;;;16.92;2.03;;;11.10;96.90;;;;;;5006231;28;20081;-87
2023/12/29 04:31:51;;;;;;;19.85;3.33;;;11.00;96.70;;;;;;5003280;28;20053;-88
2023/12/29 04:34:16;;;;;;;12.13;2.25;;;11.00;96.60;;;;;;4986812;28;20038;-88
2023/12/29 04:36:42;;;;;;;16.85;2.20;;;11.00;96.60;;;;;;5003424;28;20474;-86
2023/12/29 04:39:10;;;;;;;13.82;1.95;;;11.00;96.60;;;;;;4987026;28;20022;-86
2023/12/29 04:41:36;;;;;;;12.93;1.80;;;11.00;96.50;;;;;;5005334;28;20027;-86
2023/12/29 04:44:02;;;;;;;12.27;1.98;;;11.00;96.60;;;;;;4986337;28;20030;-86
2023/12/29 04:46:27;;;;;;;15.32;1.73;;;11.00;96.40;;;;;;5005120;28;20023;-85
2023/12/29 04:48:53;;;;;;;14.20;1.63;;;11.00;96.40;;;;;;5004657;28;20085;-85
2023/12/29 04:51:20;;;;;;;13.68;1.67;;;11.10;96.40;;;;;;4986954;28;20534;-85
2023/12/29 04:53:46;;;;;;;15.05;2.40;;;11.00;96.30;;;;;;5004635;28;20046;-86
2023/12/29 04:56:12;;;;;;;18.35;2.97;;;11.00;96.30;;;;;;4986687;28;20027;-85
2023/12/29 04:58:38;;;;;;;13.13;1.73;;;11.00;96.10;;;;;;5004523;28;20033;-85
2023/12/29 05:01:03;;;;;;;14.45;1.88;;;11.10;96.30;;;;;;4986507;28;20529;-86
2023/12/29 05:03:30;;;;;;;11.70;1.60;;;11.10;96.00;;;;;;4986371;28;20031;-86
2023/12/29 05:05:55;;;;;;;15.38;1.77;;;11.10;95.80;;;;;;4986201;28;20022;-85
2023/12/29 05:08:21;;;;;;;17.92;3.05;;;11.10;95.80;;;;;;4986911;28;20033;-87
2023/12/29 05:10:47;;;;;;;16.48;2.65;;;11.10;95.60;;;;;;4987138;28;20018;-87
2023/12/29 05:13:13;;;;;;;10.32;1.60;;;11.00;95.60;;;;;;4986636;28;20054;-87
2023/12/29 05:15:40;;;;;;;13.75;2.22;;;11.10;95.60;;;;;;4986932;28;20352;-88
2023/12/29 05:18:06;;;;;;;21.52;2.53;;;11.10;95.50;;;;;;4986176;28;20105;-87
2023/12/29 05:20:31;;;;;;;16.65;2.20;;;11.10;95.50;;;;;;4986776;28;20367;-88
2023/12/29 05:22:57;;;;;;;11.95;1.88;;;11.10;95.40;;;;;;5002646;28;20038;-85
2023/12/29 05:25:24;;;;;;;12.90;2.45;;;11.10;95.60;;;;;;5004319;28;20441;-85
2023/12/29 05:27:50;;;;;;;14.38;1.98;;;11.00;95.60;;;;;;5003810;28;20109;-86
2023/12/29 05:30:16;;;;;;;14.90;2.15;;;11.00;95.50;;;;;;4985967;28;20023;-86
2023/12/29 05:32:41;;;;;;;10.90;1.90;;;11.00;95.60;;;;;;4986424;28;20424;-85
2023/12/29 05:35:07;;;;;;;12.63;2.63;;;11.00;95.50;;;;;;5003166;28;20034;-86
2023/12/29 05:37:33;;;;;;;13.38;2.33;;;11.00;95.60;;;;;;4986293;28;20049;-85
2023/12/29 05:39:59;;;;;;;10.98;1.65;;;11.00;95.60;;;;;;4993404;28;20026;-86
2023/12/29 05:42:24;;;;;;;20.80;2.70;;;11.00;95.60;;;;;;5015757;28;20014;-86
2023/12/29 05:44:50;;;;;;;17.55;2.83;;;10.90;95.60;;;;;;5005229;28;20068;-85
2023/12/29 05:47:18;;;;;;;14.63;2.45;;;10.90;95.60;;;;;;5018007;28;20025;-86
2023/12/29 05:49:45;;;;;;;12.67;2.70;;;10.90;95.60;;;;;;5003767;28;20054;-86
2023/12/29 05:52:10;;;;;;;19.50;2.67;;;10.90;95.50;;;;;;4985323;28;20022;-86
2023/12/29 05:54:36;;;;;;;18.00;2.72;;;10.90;95.50;;;;;;4985845;28;20021;-85
2023/12/29 05:57:02;;;;;;;11.63;2.00;;;10.80;95.60;;;;;;4985482;28;20027;-85
2023/12/29 05:59:27;;;;;;;16.38;2.65;;;10.80;95.70;;;;;;4986414;28;20403;-84
2023/12/29 06:01:53;;;;;;;20.13;2.40;;;10.80;95.70;;;;;;4985977;28;20023;-84
2023/12/29 06:04:19;;;;;;;12.13;2.17;;;10.80;95.80;;;;;;4985619;28;20025;-84
2023/12/29 06:06:45;;;;;;;10.57;1.90;;;10.80;95.80;;;;;;5003895;28;20022;-83
2023/12/29 06:09:11;;;;;;;17.55;2.30;;;10.70;95.90;;;;;;4985029;28;20077;-84
2023/12/29 06:11:37;;;;;;;12.15;1.92;;;10.70;96.00;;;;;;4985660;28;20387;-84
2023/12/29 06:14:03;;;;;;;14.00;1.55;;;10.70;96.00;;;;;;5002890;28;20029;-86
2023/12/29 06:16:30;;;;;;;15.48;2.42;;;10.80;96.20;;;;;;4985737;28;20030;-84
2023/12/29 06:18:56;;;;;;;18.75;2.60;;;10.70;96.50;;;;;;4984956;28;20034;-85
2023/12/29 06:21:22;;;;;;;10.90;2.40;;;10.70;96.30;;;;;;5002982;28;20065;-85
2023/12/29 06:23:48;;;;;;;14.88;1.95;;;10.70;96.30;;;;;;4985651;28;20030;-85
2023/12/29 06:26:23;;;;;;;16.33;2.67;;;10.70;96.40;;;;;;4984864;28;20157;-85
2023/12/29 06:28:48;;;;;;;17.98;2.28;;;10.70;96.50;;;;;;5003353;28;20146;-84
2023/12/29 06:31:17;;;;;;;13.07;1.90;;;10.70;96.60;;;;;;5002767;28;20030;-85
2023/12/29 06:33:43;;;;;;;16.50;1.88;;;10.70;96.70;;;;;;5003462;28;20030;-85
2023/12/29 06:36:09;;;;;;;15.82;2.22;;;10.60;96.70;;;;;;4986102;28;20054;-86
2023/12/29 06:38:36;;;;;;;12.43;1.93;;;10.60;96.90;;;;;;5005223;28;20145;-87
2023/12/29 06:41:04;;;;;;;16.63;1.83;;;10.60;97.00;;;;;;4985438;28;20041;-86
2023/12/29 06:43:30;;;;;;;17.35;2.38;;;10.60;97.10;;;;;;5002025;28;20049;-86
2023/12/29 06:45:56;;;;;;;14.93;2.10;;;10.60;97.20;;;;;;4984939;28;20030;-85
2023/12/29 06:48:22;;;;;;;12.27;2.10;;;10.60;97.20;;;;;;4985003;28;20018;-86
2023/12/29 06:50:48;;;;;;;10.10;1.13;;;10.60;97.40;;;;;;5003040;28;20106;-86
2023/12/29 06:53:14;;;;;;;16.58;1.88;;;10.70;97.40;;;;;;4984448;28;20412;-85
2023/12/29 06:55:41;;;;;;;10.70;1.60;;;10.70;97.50;;;;;;4984755;28;20022;-85
2023/12/29 06:58:07;;;;;;;13.88;1.80;;;10.70;97.70;;;;;;4985021;28;20069;-85
2023/12/29 07:00:33;;;;;;;9.63;1.50;;;10.70;97.70;;;;;;5001885;28;20022;-84
2023/12/29 07:03:01;;;;;;;9.05;1.55;;;10.70;97.80;;;;;;4985034;28;20022;-86
2023/12/29 07:05:26;;;;;;;14.32;1.80;;;10.70;98.30;;;;;;4984406;28;20125;-86
2023/12/29 07:07:52;;;;;;;13.30;2.38;;;10.70;98.40;;;;;;4985124;28;20033;-85
2023/12/29 07:10:18;;;;;;;11.03;1.27;;;10.60;98.80;;;;;;4984160;28;20050;-85
2023/12/29 07:12:43;;;;;;;7.38;1.05;;;10.60;99.30;;;;;;4984733;28;20022;-84
2023/12/29 07:15:10;;;;;;;13.93;1.50;;;10.50;99.70;;;;;;4984395;28;20022;-85
2023/12/29 07:17:35;;;;;;;7.38;1.17;;;10.40;99.90;;;;;;4984187;28;20502;-85
2023/12/29 07:20:01;;;;;;;9.82;1.27;;;10.40;99.90;;;;;;4984395;28;20018;-84
2023/12/29 07:22:27;;;;;;;11.53;1.83;;;10.30;99.90;;;;;;4983939;28;20024;-87
2023/12/29 07:24:53;;;;;;;11.25;1.20;;;10.30;99.90;;;;;;4984463;28;20053;-87
2023/12/29 07:27:19;;;;;;;14.03;1.20;;;10.20;99.90;;;;;;5001351;28;20401;-87
2023/12/29 07:29:44;;;;;;;10.83;2.23;;;10.10;99.90;;;;;;5001683;28;20113;-86
2023/12/29 07:32:10;;;;;;;7.15;1.40;;;10.10;99.90;;;;;;5001961;28;20028;-85
2023/12/29 07:34:36;;;;;;;10.87;1.27;;;10.10;99.90;;;;;;5001268;28;20050;-86
2023/12/29 07:37:02;;;;;;;6.13;1.60;;;10.00;99.90;;;;;;4981071;28;20039;-85
2023/12/29 07:39:28;;;;;;;9.23;1.30;;;10.00;99.90;;;;;;4981769;28;20019;-85
2023/12/29 07:41:54;;;;;;;11.33;1.47;;;9.90;99.90;;;;;;4981175;28;20085;-86
2023/12/29 07:44:20;;;;;;;10.77;2.07;;;10.00;99.90;;;;;;4980497;28;20077;-85
2023/12/29 07:46:45;;;;;;;14.90;2.03;;;10.00;99.90;;;;;;4983209;28;20106;-87
2023/12/29 07:49:11;;;;;;;11.77;1.67;;;10.00;99.90;;;;;;4982293;28;20112;-86
2023/12/29 07:51:41;;;;;;;11.53;1.57;;;9.90;99.90;;;;;;4982469;28;20027;-87
2023/12/29 07:54:07;;;;;;;11.80;1.93;;;9.90;99.90;;;;;;4982235;28;20027;-86
2023/12/29 07:56:33;;;;;;;13.03;2.17;;;9.90;99.90;;;;;;4980427;28;20015;-87
2023/12/29 07:59:01;;;;;;;17.40;2.07;;;9.90;99.90;;;;;;4982615;28;20463;-86
2023/12/29 08:01:27;;;;;;;7.73;1.57;;;9.90;99.90;;;;;;4980908;28;20015;-84
2023/12/29 08:03:52;;;;;;;6.57;1.30;;;9.90;99.90;;;;;;4982579;28;20030;-82
2023/12/29 08:06:18;;;;;;;15.13;1.77;;;9.90;99.90;;;;;;4981775;28;20038;-83
2023/12/29 08:08:44;;;;;;;6.00;1.60;;;9.90;99.90;;;;;;4980114;28;20033;-84
2023/12/29 08:11:15;;;;;;;8.53;1.50;;;9.90;99.90;;;;;;4992924;28;20037;-84
2023/12/29 08:13:40;;;;;;;7.68;1.40;;;9.90;99.90;;;;;;4999294;28;20030;-84
2023/12/29 08:16:08;;;;;;;9.90;1.40;;;9.90;99.90;;;;;;5000830;28;20026;-83
2023/12/29 08:18:33;;;;;;;6.03;1.60;;;9.90;99.90;;;;;;4999896;28;20030;-84
2023/12/29 08:20:59;;;;;;;10.40;1.93;;;9.90;99.90;;;;;;5002128;28;20029;-84
2023/12/29 08:23:28;;;;;;;8.17;1.37;;;9.90;99.90;;;;;;4998264;28;20030;-83
2023/12/29 08:25:57;;;;;;;11.70;2.10;;;9.90;99.90;;;;;;4999127;28;20045;-83
2023/12/29 08:28:23;;;;;;;10.43;1.47;;;9.90;99.90;;;;;;4999408;28;20027;-84
2023/12/29 08:30:48;;;;;;;10.50;1.87;;;9.90;99.90;;;;;;5000373;28;20037;-84
2023/12/29 08:33:14;;;;;;;12.90;2.07;;;10.00;99.90;;;;;;4998316;28;20459;-83
2023/12/29 08:35:41;;;;;;;8.17;1.20;;;10.00;99.90;;;;;;4999307;28;20112;-83
2023/12/29 08:38:06;;;;;;;6.47;1.97;;;10.00;99.90;;;;;;4997748;28;20035;-84
2023/12/29 08:40:32;;;;;;;8.17;1.30;;;10.00;99.90;;;;;;5003805;28;20022;-84
2023/12/29 08:42:58;;;;;;;9.60;1.40;;;10.00;99.90;;;;;;5002148;28;20383;-84
2023/12/29 08:45:24;;;;;;;11.50;1.50;;;10.10;99.90;;;;;;5002564;28;20029;-84
2023/12/29 08:47:49;;;;;;;6.77;1.20;;;10.10;99.90;;;;;;5002266;28;20061;-83
2023/12/29 08:50:15;;;;;;;9.90;1.53;;;10.10;99.90;;;;;;5002706;28;20102;-85
2023/12/29 08:52:41;;;;;;;7.22;1.27;;;10.20;99.90;;;;;;5001841;28;20455;-85
2023/12/29 08:55:08;;;;;;;5.78;1.98;;;10.20;99.90;;;;;;5002573;28;20014;-84
2023/12/29 08:57:34;;;;;;;8.55;1.50;;;10.30;99.90;;;;;;5002840;28;20042;-84
2023/12/29 08:59:59;;;;;;;7.80;1.10;;;10.30;99.90;;;;;;5003008;28;20022;-85
2023/12/29 09:02:26;;;;;;;7.07;1.00;;;10.30;99.90;;;;;;5003215;28;20069;-83
2023/12/29 09:04:52;;;;;;;8.57;1.50;;;10.30;99.90;;;;;;5002734;28;20105;-83
2023/12/29 09:07:18;;;;;;;7.40;1.33;;;10.40;99.90;;;;;;5002881;28;20030;-84
2023/12/29 09:09:43;;;;;;;7.22;0.90;;;10.40;99.90;;;;;;5003523;28;20029;-83
2023/12/29 09:12:09;;;;;;;7.47;1.08;;;10.40;99.90;;;;;;5003335;28;20027;-83
2023/12/29 09:14:35;;;;;;;6.65;1.00;;;10.50;99.90;;;;;;5002721;28;20018;-83
2023/12/29 09:17:01;;;;;;;8.13;1.33;;;10.50;99.90;;;;;;5002913;28;20038;-84
2023/12/29 09:19:26;;;;;;;6.35;1.13;;;10.50;99.90;;;;;;5002319;28;20030;-83
2023/12/29 09:21:52;;;;;;;5.97;1.13;;;10.50;99.90;;;;;;5002159;28;20035;-85
2023/12/29 09:24:18;;;;;;;6.40;1.08;;;10.60;99.90;;;;;;5003744;28;20018;-84
2023/12/29 09:26:44;;;;;;;6.88;1.30;;;10.60;99.90;;;;;;5003163;28;20110;-84
2023/12/29 09:29:10;;;;;;;6.15;1.35;;;10.60;99.90;;;;;;5003287;28;20069;-86
2023/12/29 09:31:36;;;;;;;7.35;1.00;;;10.70;99.90;;;;;;5004173;28;20030;-84
2023/12/29 09:34:02;;;;;;;8.60;1.08;;;10.70;99.90;;;;;;5003438;28;20350;-83
2023/12/29 09:36:28;;;;;;;5.90;0.90;;;10.70;99.90;;;;;;5007295;28;20135;-86
2023/12/29 09:38:53;;;;;;;4.07;1.05;;;10.70;99.90;;;;;;5009216;28;20026;-86
2023/12/29 09:41:23;;;;;;;5.97;1.40;;;10.70;99.90;;;;;;5026030;28;20093;-85
2023/12/29 09:43:49;;;;;;;6.13;1.00;;;10.70;99.90;;;;;;5023165;28;20026;-86
2023/12/29 09:46:21;;;;;;;9.23;1.55;;;10.70;99.90;;;;;;5005802;28;20065;-86
2023/12/29 09:48:47;;;;;;;5.25;1.25;;;10.80;99.90;;;;;;5004233;28;20037;-85
2023/12/29 09:51:15;;;;;;;6.60;0.90;;;10.80;99.90;;;;;;5023677;28;20033;-85
2023/12/29 09:53:41;;;;;;;6.60;0.60;;;10.80;99.90;;;;;;5004763;28;20415;-85
2023/12/29 09:56:11;;;;;;;5.80;1.00;;;10.80;99.90;;;;;;5005498;28;20053;-87
2023/12/29 09:58:38;;;;;;;6.03;1.38;;;10.90;99.90;;;;;;5005204;28;20026;-86
2023/12/29 10:01:06;;;;;;;4.25;0.65;;;10.90;99.90;;;;;;5022266;28;20022;-87
2023/12/29 10:03:35;;;;;;;5.93;0.80;;;10.90;99.90;;;;;;5005381;28;20018;-86
2023/12/29 10:06:07;;;;;;;5.10;0.90;;;11.00;99.90;;;;;;5003557;28;20038;-86
2023/12/29 10:08:34;;;;;;;5.00;0.70;;;11.00;99.90;;;;;;5020007;28;20021;-86
2023/12/29 10:11:01;;;;;;;4.97;0.57;;;11.10;99.90;;;;;;5004136;28;20092;-87
2023/12/29 10:13:29;;;;;;;4.90;0.80;;;11.10;99.90;;;;;;5003923;28;20037;-83
2023/12/29 10:16:15;;;;;;;6.63;1.30;;;11.10;99.90;;;;;;5003822;28;20061;-85
2023/12/29 10:18:58;;;;;;;6.20;0.90;;;11.20;99.90;;;;;;5020227;28;20093;-85
2023/12/29 10:21:29;;;;;;;2.47;0.50;;;11.30;99.90;;;;;;5004979;28;20034;-85
2023/12/29 10:23:55;;;;;;;5.15;0.75;;;11.30;99.90;;;;;;5003766;28;20496;-85
2023/12/29 10:26:22;;;;;;;4.03;0.85;;;11.40;99.90;;;;;;5004006;28;20105;-84
2023/12/29 10:28:48;;;;;;;3.85;0.63;;;11.40;99.90;;;;;;5004340;28;20025;-83
2023/12/29 10:31:18;;;;;;;4.38;0.60;;;11.40;99.90;;;;;;5003994;28;20029;-84
2023/12/29 10:33:50;;;;;;;5.07;0.80;;;11.40;99.90;;;;;;5004701;28;20091;-84
2023/12/29 10:36:16;;;;;;;3.47;0.55;;;11.40;99.90;;;;;;5001944;28;20030;-84
2023/12/29 10:38:44;;;;;;;2.83;0.70;;;11.40;99.90;;;;;;5004089;28;20029;-84
2023/12/29 10:41:18;;;;;;;2.45;0.60;;;11.40;99.90;;;;;;5003935;28;20029;-83
2023/12/29 10:43:51;;;;;;;2.05;0.40;;;11.40;99.90;;;;;;5003701;28;20403;-83
2023/12/29 10:46:18;;;;;;;2.00;0.57;;;11.50;99.90;;;;;;4988567;28;20121;-84
2023/12/29 10:48:43;;;;;;;2.08;0.50;;;11.60;99.90;;;;;;5020805;28;20026;-83
2023/12/29 10:51:10;;;;;;;2.92;0.60;;;11.60;99.90;;;;;;5004751;28;20168;-83
2023/12/29 10:53:36;;;;;;;4.90;0.57;;;11.70;99.90;;;;;;5003460;28;20106;-84
2023/12/29 10:56:03;;;;;;;5.10;0.50;;;11.70;99.90;;;;;;5021767;28;20036;-84
2023/12/29 10:58:29;;;;;;;1.83;0.60;;;11.70;99.90;;;;;;5004047;28;20042;-84
2023/12/29 11:01:01;;;;;;;2.35;0.50;;;11.80;99.90;;;;;;5002648;28;20102;-84
2023/12/29 11:03:27;;;;;;;2.03;0.50;;;11.90;99.90;;;;;;5004077;28;20478;-84
2023/12/29 11:06:02;;;;;;;3.35;0.60;;;12.00;99.90;;;;;;5021090;28;20041;-83
2023/12/29 11:08:28;;;;;;;3.47;0.50;;;12.10;99.90;;;;;;5004169;28;20029;-83
2023/12/29 11:10:55;;;;;;;4.68;0.70;;;12.20;99.90;;;;;;5003416;28;20029;-83
2023/12/29 11:13:22;;;;;;;3.08;0.50;;;12.20;99.90;;;;;;5003583;28;20038;-84
2023/12/29 11:15:48;;;;;;;5.03;0.75;;;12.20;99.90;;;;;;5021295;28;20022;-85
2023/12/29 11:18:15;;;;;;;3.13;1.05;;;12.20;99.90;;;;;;5003150;28;20045;-84
2023/12/29 11:20:42;;;;;;;6.43;0.85;;;12.30;99.90;;;;;;5004171;28;20033;-84
2023/12/29 11:23:10;;;;;;;4.03;0.75;;;12.40;99.90;;;;;;5020315;28;20065;-84
2023/12/29 11:25:36;;;;;;;5.25;0.88;;;12.60;99.90;;;;;;5003666;28;20080;-88
2023/12/29 11:28:02;;;;;;;5.93;1.55;;;12.70;99.90;;;;;;5003350;28;20024;-84
2023/12/29 11:30:27;;;;;;;4.60;0.65;;;12.70;99.00;;;;;;5021451;28;20053;-87
2023/12/29 11:33:17;;;;;;;5.00;0.80;;;12.70;97.90;;;;;;5003523;28;20112;-85
2023/12/29 11:36:16;;;;;;;4.45;0.75;;;12.80;97.50;;;;;;5003685;28;20033;-82
2023/12/29 11:39:27;;;;;;;3.95;0.90;;;12.80;96.90;;;;;;5021464;28;20053;-83
2023/12/29 11:42:14;;;;;;;5.35;0.73;;;12.80;96.50;;;;;;4902349;29;20064;-83
2023/12/29 11:44:39;;;;;;;5.70;1.17;;;12.70;96.30;;;;;;4883804;29;20033;-82
2023/12/29 11:47:25;;;;;;;3.28;0.60;;;12.70;96.40;;;;;;4974711;28;20466;-84
2023/12/29 11:50:01;;;;;;;5.38;0.80;;;12.70;96.10;;;;;;5001651;28;20379;-84
2023/12/29 11:52:34;;;;;;;6.20;0.80;;;12.70;96.10;;;;;;5002940;28;20026;-85
2023/12/29 11:55:14;;;;;;;2.97;0.50;;;12.70;96.10;;;;;;5003051;28;20069;-83
2023/12/29 11:57:41;;;;;;;2.15;0.60;;;12.70;95.90;;;;;;5002143;28;20030;-85
2023/12/29 12:00:08;;;;;;;6.63;1.00;;;12.70;95.90;;;;;;5020532;28;20113;-84
2023/12/29 12:02:35;;;;;;;6.93;0.63;;;12.60;95.70;;;;;;5002465;28;20018;-84
2023/12/29 12:05:00;;;;;;;9.05;1.02;;;12.60;95.30;;;;;;5019849;28;20475;-83
2023/12/29 12:07:29;;;;;;;7.05;0.82;;;12.60;95.30;;;;;;5003489;28;20032;-83
2023/12/29 12:10:19;;;;;;;10.88;1.10;;;12.50;95.50;;;;;;5020365;28;20040;-83
2023/12/29 12:12:45;;;;;;;7.82;1.00;;;12.60;95.30;;;;;;5006143;28;20026;-83
2023/12/29 12:15:32;;;;;;;7.47;0.70;;;12.40;95.40;;;;;;5023666;28;20057;-83
2023/12/29 12:17:59;;;;;;;6.50;0.70;;;12.40;95.50;;;;;;5004426;28;20032;-83
2023/12/29 12:20:26;;;;;;;9.48;1.05;;;12.40;95.60;;;;;;5006690;28;20030;-83
2023/12/29 12:23:18;;;;;;;10.05;1.35;;;12.40;95.50;;;;;;5006075;28;20425;-84
2023/12/29 12:25:45;;;;;;;8.68;1.30;;;12.40;95.50;;;;;;5025333;28;20076;-83
2023/12/29 12:28:14;;;;;;;4.68;0.90;;;12.40;95.50;;;;;;5004615;28;20096;-83
2023/12/29 12:30:40;;;;;;;7.10;0.80;;;12.40;95.70;;;;;;5005214;28;20030;-85
2023/12/29 12:33:05;;;;;;;7.32;0.82;;;12.40;95.80;;;;;;5004937;28;20034;-83
2023/12/29 12:35:32;;;;;;;7.82;1.13;;;12.40;95.80;;;;;;4986579;28;20026;-84
2023/12/29 12:38:08;;;;;;;9.90;1.02;;;12.40;95.90;;;;;;4988795;28;20043;-83
2023/12/29 12:40:34;;;;;;;10.93;1.20;;;12.40;95.90;;;;;;5005862;28;20030;-83
2023/12/29 12:42:59;;;;;;;6.55;0.85;;;12.40;96.00;;;;;;4994293;28;20025;-83
2023/12/29 12:45:28;;;;;;;5.80;0.98;;;12.40;96.00;;;;;;5006831;28;20046;-84